• Join FlightAware (Why Join?)
  • Login
  • US Flag 
09:53PM EST


 

Airport Tracker/Info


-or-


 

Live Flight TrackerFlight Track Log ✈ BJS542 ✈ 27-Apr-2013 ✈ KCMH - KCAE

Flight Track Log - Related Links

Times and Time Zones

All times are in EDT time to prevent confusion due to time zone crossing. See the BJS542 flight status page for this flight to view local times or setup timezone preferences in your user account.

Time Position Orientation Groundspeed Altitude Reporting Facility
EDT Latitude Longitude Course Direction KTS MPH feet Rate Location/Type
06:17PM 39.9942 -82.8792 99° East 176 203 1,700  Level Indianapolis Center
06:18PM 39.9889 -82.8367 99° East 202 232 3,800 3,900 Climbing Indianapolis Center
06:19PM 39.9422 -82.7875 141° Southeast 240 276 8,100 4,200 Climbing Indianapolis Center
06:20PM 39.8672 -82.7761 173° South 266 306 12,500 4,140 Climbing Indianapolis Center
06:21PM 39.7747 -82.7575 171° South 327 376 16,700 3,720 Climbing Indianapolis Center
06:22PM 39.6733 -82.7383 172° South 358 412 20,200 3,180 Climbing Indianapolis Center
06:23PM 39.5661 -82.7178 172° South 383 441 23,300 2,580 Climbing Indianapolis Center
06:24PM 39.4489 -82.6956 172° South 416 479 25,600 2,520 Climbing Indianapolis Center
06:25PM 39.3297 -82.6736 172° South 426 490 28,500 2,580 Climbing Indianapolis Center
06:26PM 39.2072 -82.6514 172° South 436 502 30,900 2,160 Climbing Indianapolis Center
06:27PM 39.0803 -82.6269 171° South 443 510 33,000 2,520 Climbing Indianapolis Center
06:28PM 38.9564 -82.6042 172° South 448 516 36,200 2,340 Climbing Indianapolis Center
06:29PM 38.8403 -82.5833 172° South 428 493 37,900 1,320 Climbing Indianapolis Center
06:30PM 38.7206 -82.5617 172° South 432 497 39,000 480 Climbing Indianapolis Center
06:31PM 38.5725 -82.5378 173° South 447 514 39,000  Level Indianapolis Center
06:32PM 38.4492 -82.5450 183° South 442 509 39,000  Level Indianapolis Center
06:33PM 38.3256 -82.5481 181° South 443 510 39,000  Level Indianapolis Center
06:34PM 38.2044 -82.5533 182° South 437 503 39,000 -60 Level Indianapolis Center
06:35PM 38.0822 -82.5597 182° South 437 503 38,900  Descending Indianapolis Center
06:36PM 37.9594 -82.5383 172° South 446 513 39,000  Climbing Indianapolis Center
06:37PM 37.8372 -82.5125 171° South 444 511 39,000  Level Indianapolis Center
06:38PM 37.6944 -82.4775 169° South 445 512 39,000  Level Indianapolis Center
06:39PM 37.5728 -82.4528 171° South 441 507 39,000  Level Indianapolis Center
06:40PM 37.4517 -82.4300 172° South 437 503 39,000  Level Indianapolis Center
06:41PM 37.3283 -82.4031 170° South 444 511 39,000  Level Indianapolis Center
06:42PM 37.2022 -82.3758 170° South 453 521 39,000  Level Indianapolis Center
06:43PM 37.0767 -82.3486 170° South 453 521 39,000  Level Indianapolis Center
06:44PM 36.9511 -82.3222 170° South 454 522 39,000  Level Indianapolis Center
06:45PM 36.8261 -82.2953 170° South 452 520 39,000  Level Indianapolis Center
06:46PM 36.6794 -82.2631 170° South 458 527 39,000  Level Atlanta Center
06:47PM 36.5686 -82.2422 171° South 458 527 39,000 -240 Level Atlanta Center
06:48PM 36.4431 -82.2167 171° South 458 527 38,600 -720 Descending Atlanta Center
06:49PM 36.3197 -82.1911 171° South 458 527 37,600 -1,080 Descending Atlanta Center
06:50PM 36.2067 -82.1578 167° South 437 503 36,500 -1,500 Descending Atlanta Center
06:51PM 36.0869 -82.1039 160° South 432 497 34,600 -1,800 Descending Atlanta Center
06:52PM 35.9669 -82.0453 158° South 459 528 33,000 -840 Descending Atlanta Center
06:53PM 35.8450 -81.9894 160° South 464 534 33,000  Level Atlanta Center
06:54PM 35.7231 -81.9336 160° South 470 541 33,000 -120 Level Atlanta Center
06:55PM 35.5969 -81.8756 159° South 475 547 32,800 -600 Descending Atlanta Center
06:56PM 35.4708 -81.8175 159° South 475 547 31,800 -1,020 Descending Atlanta Center
06:57PM 35.3444 -81.7600 160° South 480 552 30,800 -900 Descending Atlanta Center
06:58PM 35.2183 -81.7025 160° South 480 552 30,000 -420 Descending Atlanta Center
06:59PM 35.0942 -81.6475 160° South 481 554 30,000 -1,260 Level Atlanta Center
07:00PM 34.9636 -81.5853 159° South 468 539 27,500 -2,760 Descending Atlanta Center
07:01PM 34.8414 -81.5283 159° South 468 539 24,500 -2,940 Descending Atlanta Center
07:02PM 34.7233 -81.4761 160° South 462 532 21,700 -2,700 Descending Atlanta Center
07:03PM 34.6222 -81.4264 158° South 454 522 19,100 -2,640 Descending Atlanta Center
07:06PM 34.3481 -81.3106 161° South 423 487 12,800 -2,460 Descending Jacksonville Center
07:07PM 34.2661 -81.2669 156° South 393 452 10,800 -2,340 Descending Jacksonville Center
07:08PM 34.1806 -81.2583 175° South 321 369 8,200 -2,700 Descending Jacksonville Center
07:09PM 34.1117 -81.2622 183° South 298 343 5,400 -2,460 Descending Jacksonville Center
07:10PM 34.0428 -81.2536 174° South 271 312 3,300 -1,560 Descending Jacksonville Center
07:11PM 33.9842 -81.2422 171° South 237 273 2,300 -600 Descending Jacksonville Center
07:12PM 33.9111 -81.2361 176° South 231 266 2,100 -240 Descending Jacksonville Center